LSGC weather

Les Eplatures Airport
La Chaux-de-Fonds, Canton of Neuch√Ętel, Switzerland

Public forecast

Using degrees Celsius for public forecast. Weather courtesy of forecast.io.

METAR (pilot weather report)

Retrieved 2019/07/23 00:20 UTC (23 minutes ago):

LSGC 230020Z AUTO 00000KT CAVOK 17/13 Q1026

TAF (pilot weather forecast)

Forecast is more than 6 hours old.

Closest forecast is Payerne Air Base, 15.3 nm (28.3 km) SSE. Retrieved 2019/07/22 17:00 UTC (8 hours ago):

TAF LSMP 221625Z 2217/2323 VRB03KT CAVOK